createdAt,value
2017-10-15T00:00:49.727Z,8.90
2017-10-15T00:03:15.476Z,7.70
2017-10-15T00:05:41.243Z,8.30
2017-10-15T00:08:07.031Z,8.03
2017-10-15T00:10:32.776Z,8.00
2017-10-15T00:12:58.636Z,8.37
2017-10-15T00:15:24.395Z,8.67
2017-10-15T00:17:50.147Z,8.73
2017-10-15T00:20:15.919Z,8.90
2017-10-15T00:22:41.723Z,9.60
2017-10-15T00:25:07.519Z,9.67
2017-10-15T00:27:33.307Z,9.40
2017-10-15T00:29:59.119Z,10.30
2017-10-15T00:32:24.875Z,7.33
2017-10-15T00:34:50.618Z,8.47
2017-10-15T00:37:16.427Z,9.03
2017-10-15T00:39:42.207Z,10.10
2017-10-15T00:42:07.971Z,9.10
2017-10-15T00:44:33.735Z,8.50
2017-10-15T00:46:59.503Z,8.73
2017-10-15T00:49:25.252Z,8.53
2017-10-15T00:51:51.011Z,9.20
2017-10-15T00:54:16.797Z,8.23
2017-10-15T00:56:42.583Z,7.87
2017-10-15T00:59:08.367Z,9.00
2017-10-15T01:01:34.219Z,9.70
2017-10-15T01:04:00.035Z,8.70
2017-10-15T01:06:25.823Z,8.10
2017-10-15T01:08:51.692Z,8.87
2017-10-15T01:11:17.443Z,9.20
2017-10-15T01:13:43.239Z,9.83
2017-10-15T01:16:09.062Z,8.60
2017-10-15T01:18:34.839Z,9.83
2017-10-15T01:21:00.650Z,9.47
2017-10-15T01:23:26.439Z,10.10
2017-10-15T01:25:52.191Z,10.60
2017-10-15T01:28:17.986Z,9.40
2017-10-15T01:30:43.756Z,9.53
2017-10-15T01:33:09.540Z,10.27
2017-10-15T01:35:35.327Z,9.23
2017-10-15T01:38:01.192Z,9.60
2017-10-15T01:40:26.947Z,8.63
2017-10-15T01:42:52.756Z,9.07
2017-10-15T01:45:18.587Z,8.90
2017-10-15T01:47:44.394Z,8.70
2017-10-15T01:50:10.195Z,8.80
2017-10-15T01:52:35.983Z,8.43
2017-10-15T01:55:01.788Z,9.97
2017-10-15T01:57:27.598Z,9.57
2017-10-15T01:59:53.398Z,9.93
2017-10-15T02:02:19.154Z,10.93
2017-10-15T02:04:44.938Z,9.93
2017-10-15T02:07:10.707Z,9.20
2017-10-15T02:09:36.532Z,10.00
2017-10-15T02:12:02.289Z,9.60
2017-10-15T02:14:28.147Z,9.30
2017-10-15T02:16:53.931Z,9.73
2017-10-15T02:19:19.703Z,8.40
2017-10-15T02:21:45.510Z,7.70
2017-10-15T02:24:11.301Z,8.53
2017-10-15T02:26:37.036Z,9.27
2017-10-15T02:29:02.823Z,8.20
2017-10-15T02:31:28.562Z,8.40
2017-10-15T02:33:54.305Z,7.93
2017-10-15T02:36:20.084Z,9.20
2017-10-15T02:38:45.875Z,8.13
2017-10-15T02:41:11.757Z,7.83
2017-10-15T02:43:37.523Z,8.47
2017-10-15T02:46:03.324Z,7.60
2017-10-15T02:48:29.203Z,8.90
2017-10-15T02:50:54.983Z,8.40
2017-10-15T02:53:20.827Z,9.30
2017-10-15T02:55:46.571Z,8.70
2017-10-15T02:58:12.330Z,8.63
2017-10-15T03:00:38.075Z,8.20
2017-10-15T03:03:03.815Z,8.13
2017-10-15T03:05:29.587Z,7.53
2017-10-15T03:07:55.329Z,8.50
2017-10-15T03:10:21.098Z,7.23
2017-10-15T03:12:46.875Z,7.63
2017-10-15T03:15:12.655Z,7.60
2017-10-15T03:17:38.431Z,7.27
2017-10-15T03:20:04.175Z,7.17
2017-10-15T03:22:30.003Z,7.20
2017-10-15T03:24:55.762Z,7.67
2017-10-15T03:27:21.516Z,6.90
2017-10-15T03:29:47.291Z,7.57
2017-10-15T03:32:13.039Z,8.00
2017-10-15T03:34:38.830Z,7.53
2017-10-15T03:37:04.595Z,7.97
2017-10-15T03:39:30.416Z,8.60
2017-10-15T03:41:56.158Z,8.87
2017-10-15T03:44:21.905Z,7.20
2017-10-15T03:46:47.750Z,6.57
2017-10-15T03:49:13.502Z,8.87
2017-10-15T03:51:39.268Z,8.30
2017-10-15T03:54:05.001Z,9.07
2017-10-15T03:56:30.758Z,7.53
2017-10-15T03:58:56.596Z,8.30
2017-10-15T04:01:22.379Z,7.90
2017-10-15T04:03:48.135Z,7.60
2017-10-15T04:06:13.866Z,7.67
2017-10-15T04:08:39.651Z,6.83
2017-10-15T04:11:05.391Z,8.30
2017-10-15T04:13:31.215Z,8.30
2017-10-15T04:15:57.006Z,8.57
2017-10-15T04:18:22.809Z,8.50
2017-10-15T04:20:48.603Z,8.30
2017-10-15T04:23:14.391Z,7.97
2017-10-15T04:25:40.241Z,8.23
2017-10-15T04:28:06.019Z,7.93
2017-10-15T04:30:31.779Z,8.17
2017-10-15T04:32:57.555Z,7.83
2017-10-15T04:35:23.306Z,7.27
2017-10-15T04:37:49.043Z,7.30
2017-10-15T04:40:14.875Z,7.47
2017-10-15T04:42:40.659Z,6.40
2017-10-15T04:45:06.414Z,7.57
2017-10-15T04:47:32.176Z,7.53
2017-10-15T04:49:57.943Z,7.97
2017-10-15T04:52:23.698Z,9.57
2017-10-15T04:54:49.434Z,9.20
2017-10-15T04:57:15.252Z,9.27
2017-10-15T04:59:41.095Z,9.30
2017-10-15T05:02:06.852Z,7.57
2017-10-15T05:04:32.607Z,10.00
2017-10-15T05:06:58.362Z,10.57
2017-10-15T05:09:24.116Z,10.20
2017-10-15T05:11:49.914Z,10.90
2017-10-15T05:14:15.687Z,7.10
2017-10-15T05:16:41.442Z,8.00
2017-10-15T05:19:07.187Z,7.93
2017-10-15T05:21:32.963Z,7.77
2017-10-15T05:23:58.749Z,8.40
2017-10-15T05:26:24.494Z,8.43
2017-10-15T05:28:50.263Z,8.60
2017-10-15T05:31:15.998Z,8.70
2017-10-15T05:33:41.867Z,9.07
2017-10-15T05:36:07.647Z,9.57
2017-10-15T05:38:33.411Z,9.87
2017-10-15T05:40:59.197Z,9.97
2017-10-15T05:43:24.972Z,9.20
2017-10-15T05:45:50.863Z,10.40
2017-10-15T05:48:16.615Z,10.03
2017-10-15T05:50:42.391Z,10.47
2017-10-15T05:53:08.218Z,9.20
2017-10-15T05:55:33.983Z,10.43
2017-10-15T05:57:59.771Z,7.57
2017-10-15T06:00:25.519Z,8.30
2017-10-15T06:02:51.303Z,10.43
2017-10-15T06:05:17.123Z,9.03
2017-10-15T06:07:42.895Z,8.60
2017-10-15T06:10:08.688Z,8.07
2017-10-15T06:12:34.465Z,9.27
2017-10-15T06:15:00.231Z,9.60
2017-10-15T06:17:26.008Z,9.27
2017-10-15T06:19:51.773Z,9.37
2017-10-15T06:22:17.596Z,8.13
2017-10-15T06:24:43.381Z,10.07
2017-10-15T06:27:09.188Z,8.50
2017-10-15T06:29:34.955Z,8.43
2017-10-15T06:32:00.740Z,9.60
2017-10-15T06:34:26.531Z,9.53
2017-10-15T06:36:52.311Z,9.20
2017-10-15T06:39:18.080Z,10.20
2017-10-15T06:41:43.866Z,10.43
2017-10-15T06:44:09.598Z,9.53
2017-10-15T06:46:35.354Z,8.67
2017-10-15T06:49:01.140Z,10.00
2017-10-15T06:51:26.883Z,7.97
2017-10-15T06:53:52.643Z,9.97
2017-10-15T06:56:18.421Z,8.73
2017-10-15T06:58:44.185Z,8.80
2017-10-15T07:01:09.987Z,9.13
2017-10-15T07:03:35.764Z,9.07
2017-10-15T07:06:01.512Z,8.60
2017-10-15T07:08:27.282Z,7.80
2017-10-15T07:10:53.040Z,7.67
2017-10-15T07:13:18.810Z,8.40
2017-10-15T07:15:44.567Z,8.13
2017-10-15T07:18:10.330Z,9.60
2017-10-15T07:20:36.108Z,8.47
2017-10-15T07:23:01.915Z,8.10
2017-10-15T07:25:27.671Z,7.90
2017-10-15T07:27:53.423Z,8.77
2017-10-15T07:30:19.219Z,7.70
2017-10-15T07:32:44.987Z,7.87
2017-10-15T07:35:10.772Z,8.57
2017-10-15T07:37:36.524Z,9.47
2017-10-15T07:40:02.319Z,8.70
2017-10-15T07:42:28.087Z,8.07
2017-10-15T07:44:53.855Z,8.13
2017-10-15T07:47:19.783Z,8.87
2017-10-15T07:49:45.590Z,8.70
2017-10-15T07:52:11.348Z,7.80
2017-10-15T07:54:37.131Z,8.27
2017-10-15T07:57:02.915Z,8.20
2017-10-15T07:59:28.763Z,8.23
2017-10-15T08:01:54.510Z,8.43
2017-10-15T08:04:20.295Z,7.40
2017-10-15T08:06:46.063Z,7.70
2017-10-15T08:09:11.803Z,8.97
2017-10-15T08:11:37.591Z,8.63
2017-10-15T08:14:03.408Z,7.70
2017-10-15T08:16:29.158Z,8.90
2017-10-15T08:18:54.939Z,8.30
2017-10-15T08:21:20.676Z,9.67
2017-10-15T08:23:46.443Z,9.07
2017-10-15T08:26:12.207Z,9.77
2017-10-15T08:28:38.038Z,9.37
2017-10-15T08:31:03.807Z,10.30
2017-10-15T08:33:29.630Z,9.20
2017-10-15T08:35:55.387Z,9.90
2017-10-15T08:38:21.131Z,11.47
2017-10-15T08:40:46.953Z,11.50
2017-10-15T08:43:12.783Z,11.27
2017-10-15T08:45:38.560Z,10.23
2017-10-15T08:48:04.288Z,11.60
2017-10-15T08:50:30.071Z,11.40
2017-10-15T08:52:55.839Z,11.60
2017-10-15T08:55:21.607Z,10.73
2017-10-15T08:57:47.384Z,12.70
2017-10-15T09:00:13.142Z,12.10
2017-10-15T09:02:38.931Z,10.90
2017-10-15T09:05:04.690Z,11.40
2017-10-15T09:07:30.581Z,10.90
2017-10-15T09:09:56.331Z,11.50
2017-10-15T09:12:22.092Z,10.90
2017-10-15T09:14:47.835Z,10.43
2017-10-15T09:17:13.572Z,9.40
2017-10-15T09:19:39.338Z,9.40
2017-10-15T09:22:06.789Z,8.30
2017-10-15T09:24:32.592Z,8.20
2017-10-15T09:26:58.364Z,8.20
2017-10-15T09:29:24.111Z,7.70
2017-10-15T09:31:49.947Z,7.67
2017-10-15T09:34:15.699Z,7.33
2017-10-15T09:36:41.438Z,6.10
2017-10-15T09:39:07.214Z,8.00
2017-10-15T09:41:32.979Z,6.17
2017-10-15T09:43:58.718Z,5.97
2017-10-15T09:46:24.491Z,5.90
2017-10-15T09:48:50.237Z,6.10
2017-10-15T09:51:16.007Z,5.50
2017-10-15T09:53:41.840Z,5.23
2017-10-15T09:56:07.592Z,16.93
2017-10-15T09:58:33.346Z,5.47
2017-10-15T10:00:59.111Z,5.70
2017-10-15T10:03:24.881Z,5.43
2017-10-15T10:05:50.647Z,5.07
2017-10-15T10:08:16.408Z,5.00
2017-10-15T10:10:42.184Z,5.37
2017-10-15T10:13:08.951Z,4.80
2017-10-15T10:15:34.698Z,4.73
2017-10-15T10:18:00.462Z,3.97
2017-10-15T10:20:26.218Z,3.80
2017-10-15T10:22:51.965Z,3.73
2017-10-15T10:25:17.775Z,3.83
2017-10-15T10:27:43.535Z,3.57
2017-10-15T10:30:09.317Z,4.10
2017-10-15T10:32:35.083Z,4.30
2017-10-15T10:35:00.844Z,4.63
2017-10-15T10:37:26.587Z,3.80
2017-10-15T10:39:52.389Z,3.97
2017-10-15T10:42:18.150Z,4.30
2017-10-15T10:44:43.916Z,4.40
2017-10-15T10:47:09.667Z,4.20
2017-10-15T10:49:35.419Z,4.30
2017-10-15T10:52:01.211Z,4.37
2017-10-15T10:54:26.951Z,4.50
2017-10-15T10:56:52.722Z,3.47
2017-10-15T10:59:18.499Z,3.80
2017-10-15T11:01:44.271Z,4.17
2017-10-15T11:04:10.030Z,3.87
2017-10-15T11:06:35.772Z,3.93
2017-10-15T11:09:01.600Z,4.07
2017-10-15T11:11:27.388Z,2.80
2017-10-15T11:13:53.128Z,2.80
2017-10-15T11:16:18.890Z,3.53
2017-10-15T11:18:44.663Z,3.50
2017-10-15T11:21:10.469Z,3.57
2017-10-15T11:23:36.219Z,3.10
2017-10-15T11:26:01.987Z,2.43
2017-10-15T11:28:27.741Z,3.70
2017-10-15T11:30:53.528Z,3.07
2017-10-15T11:33:19.263Z,3.33
2017-10-15T11:35:45.012Z,3.23
2017-10-15T11:38:10.776Z,2.97
2017-10-15T11:40:36.561Z,3.03
2017-10-15T11:43:02.311Z,3.10
2017-10-15T11:45:28.109Z,3.10
2017-10-15T11:47:53.870Z,3.43
2017-10-15T11:50:19.803Z,3.67
2017-10-15T11:52:45.563Z,3.80
2017-10-15T11:55:11.342Z,3.27
2017-10-15T11:57:37.099Z,3.80
2017-10-15T12:00:02.887Z,3.70
2017-10-15T12:02:29.296Z,3.30
2017-10-15T12:04:55.055Z,3.23
2017-10-15T12:07:20.800Z,3.60
2017-10-15T12:09:46.605Z,3.13
2017-10-15T12:12:12.365Z,3.50
2017-10-15T12:14:38.127Z,3.70
2017-10-15T12:17:04.807Z,4.07
2017-10-15T12:19:30.555Z,3.40
2017-10-15T12:21:56.322Z,3.83
2017-10-15T12:24:22.078Z,4.17
2017-10-15T12:26:47.838Z,3.30
2017-10-15T12:29:13.638Z,3.67
2017-10-15T12:31:39.416Z,3.73
2017-10-15T12:34:05.143Z,4.00
2017-10-15T12:36:30.937Z,3.70
2017-10-15T12:38:56.699Z,3.37
2017-10-15T12:41:22.479Z,3.40
2017-10-15T12:43:48.272Z,4.20
2017-10-15T12:46:14.020Z,3.30
2017-10-15T12:48:39.803Z,4.00
2017-10-15T12:51:05.574Z,3.50
2017-10-15T12:53:31.335Z,3.87
2017-10-15T12:55:57.113Z,3.47
2017-10-15T12:58:22.891Z,4.00
2017-10-15T13:00:48.662Z,4.33
2017-10-15T13:03:37.848Z,3.57
2017-10-15T13:22:49.387Z,4.30
2017-10-15T13:25:38.735Z,4.30
2017-10-15T13:44:50.253Z,3.40
2017-10-15T13:47:38.930Z,4.13
2017-10-15T13:50:36.311Z,3.50
2017-10-15T14:09:46.249Z,3.80
2017-10-15T14:28:57.819Z,3.33
2017-10-15T14:48:32.271Z,4.13
2017-10-15T14:50:58.041Z,4.00
2017-10-15T15:10:33.242Z,3.37
2017-10-15T15:29:43.247Z,3.63
2017-10-15T15:48:54.543Z,3.60
2017-10-15T15:51:51.294Z,4.43
2017-10-15T16:11:06.515Z,4.03
2017-10-15T16:14:03.202Z,3.90
2017-10-15T16:17:00.174Z,4.57
2017-10-15T16:19:33.475Z,4.10
2017-10-15T16:22:22.584Z,4.43
2017-10-15T16:25:19.933Z,4.93
2017-10-15T16:28:17.480Z,4.50
2017-10-15T16:31:14.723Z,4.83
2017-10-15T16:34:12.068Z,4.60
2017-10-15T16:37:09.650Z,4.70
2017-10-15T16:42:56.207Z,3.90
2017-10-15T16:45:45.287Z,4.83
2017-10-15T17:04:56.539Z,4.60
2017-10-15T17:07:45.791Z,6.83
2017-10-15T17:10:42.975Z,5.50
2017-10-15T17:13:40.066Z,6.30
2017-10-15T17:26:24.115Z,4.90
2017-10-15T17:29:13.946Z,5.00
2017-10-15T17:48:25.874Z,6.10
2017-10-15T18:08:00.759Z,14.87
2017-10-15T18:27:10.640Z,6.70
2017-10-15T18:46:21.480Z,5.43
2017-10-15T19:05:32.106Z,4.73
2017-10-15T19:18:01.856Z,5.27
2017-10-15T19:20:51.791Z,5.40
2017-10-15T19:23:48.712Z,5.47
2017-10-15T19:43:06.551Z,8.00
2017-10-15T20:02:42.451Z,8.23
2017-10-15T20:22:19.149Z,12.67
2017-10-15T20:41:37.276Z,7.80
2017-10-15T20:44:34.505Z,7.23
2017-10-15T21:03:46.787Z,6.97
2017-10-15T21:06:44.404Z,10.07
2017-10-15T21:09:10.240Z,7.70
2017-10-15T21:11:59.417Z,7.80
2017-10-15T21:14:57.371Z,8.20
2017-10-15T21:30:50.038Z,6.53
2017-10-15T21:33:39.150Z,7.50
2017-10-15T21:36:37.118Z,7.40
2017-10-15T21:52:29.152Z,8.37
2017-10-15T21:55:18.901Z,8.07
2017-10-15T21:58:16.049Z,6.90
2017-10-15T22:14:08.266Z,7.40
2017-10-15T22:16:57.925Z,8.27
2017-10-15T22:19:55.674Z,8.17
2017-10-15T22:22:53.124Z,6.80
2017-10-15T22:35:41.328Z,6.93
2017-10-15T22:38:30.800Z,8.07
2017-10-15T22:41:28.334Z,7.13
2017-10-15T22:44:26.107Z,6.90
2017-10-15T22:57:27.937Z,7.37
2017-10-15T23:00:17.606Z,6.83
2017-10-15T23:03:14.617Z,6.07
2017-10-15T23:19:03.691Z,7.65
2017-10-15T23:21:52.683Z,7.63
2017-10-15T23:24:49.846Z,7.60
2017-10-15T23:27:47.023Z,7.70
2017-10-15T23:30:44.585Z,7.05
2017-10-15T23:33:42.379Z,7.60
2017-10-15T23:36:39.807Z,6.80
2017-10-15T23:39:37.099Z,7.90
2017-10-15T23:58:48.994Z,7.43
